Skip Navigation LinksHome page > Weather > Current weather Skip Navigation Links

Current Weather

Denver Intl, Denver

For information only: do not use for flight planning or navigation.
Latest weather
Observation time Friday, February 28, 2020 4:53 AM MST
Local time Friday, February 28, 2020 5:15 AM MST
Flight conditions Visual Meteorological Conditions
Winds
Wind direction West (280°)
Wind speed 15 mph
Visibility 10 mi.
Sky condition
Ceiling unlimited
Sky clear
Temperature 38°F
Dewpoint 11°F
Altimeter 30.22 in.Hg
Pressure change last 3 hours0.00 in.Hg
Pressure rising more quickly
Derived measurements
Relative humidity 32%
Wind chill 29°F
Density altitude 3714 ft.
Sea-level pressure 30.19 in.Hg
Climate data
Temperature minimum, last 6 hours 32°F
Temperature maximum, last 6 hours 38°F
Remarks
Automated weather observing station with precipitation discriminator.
METAR KDEN 281153Z 28013KT 10SM CLR 03/M12 A3022 RMK AO2 SLP223 T00331117 10033 20000 53001

Settings

Location code

InnerDrive.Weather 4.0.6770.0 Release CLR 4.0.30319.42000
Copyright ©2018 Inner Drive Technology. All rights reserved. Portions Copyright ©1986-2018 David Braverman.

Find weather

Site navigation


Skip Navigation Links

Place info

Page info

PayPal - The safer, easier way to pay online!

Return home.

Copyright ©2020 Inner Drive Technology. Purveyors of fine, hand-crafted computer software. Page printed 2020-02-28T12:15:45 UTC.